Nesenie raksti

Ziņas

Par Gliding.lv

Gliding.lv ir interneta vietne par planieriem un planierismu. Šeit būs atrodama informācija par iespējām pamēģināt, iesaistīties un organizēt planierisma aktivitātes. Izmanto Gliding.lv forumu, ja Tev ir kāda tēma diskusijai vai jautājums. Gliding.lv merķis ir informēt un apvienot planierisma interesentus, nodrošinot un apmainoties ar aktuālāko un arī bijušo. Lidojam!

Laiks Rīgā
13°
broken clouds
mitrums: 54%
vējš: 6m/s R
Aug 14 • Zem 12
14°
Otr
13°
Tre
11°
Cet
10°
Pie
Meteo-dati no OpenWeatherMap

METAR

EVRA 161320Z 27009KT 190V330 9999 SCT048 16/07 Q1000 NOSIG

EVLA 161320Z AUTO 27014KT 240V300 9999 SCT036/// BKN041/// 14/06 Q1004

EVVA 161320Z AUTO 27017G27KT 9999 BKN037 BKN045 15/07 Q1002

Nesenie raksti

Pāriet uz rīkjoslu